sensor_id;sensor_type;location;lat;lon;timestamp;temperature;humidity
11511;DHT22;5812;48.864;9.190;2023-03-01T00:01:11;-2.20;21.40
11511;DHT22;5812;48.864;9.190;2023-03-01T00:03:37;-2.00;1.00
11511;DHT22;5812;48.864;9.190;2023-03-01T00:06:03;-2.00;1.00
11511;DHT22;5812;48.864;9.190;2023-03-01T00:08:30;-2.00;1.00
11511;DHT22;5812;48.864;9.190;2023-03-01T00:11:03;-2.10;1.70
11511;DHT22;5812;48.864;9.190;2023-03-01T00:13:30;-2.10;2.60
11511;DHT22;5812;48.864;9.190;2023-03-01T00:15:55;-2.10;10.20
11511;DHT22;5812;48.864;9.190;2023-03-01T00:18:21;-2.20;12.60
11511;DHT22;5812;48.864;9.190;2023-03-01T00:20:54;-2.30;24.60
11511;DHT22;5812;48.864;9.190;2023-03-01T00:23:20;-2.30;61.50
11511;DHT22;5812;48.864;9.190;2023-03-01T00:25:46;-2.30;18.30
11511;DHT22;5812;48.864;9.190;2023-03-01T00:28:12;-2.00;1.00
11511;DHT22;5812;48.864;9.190;2023-03-01T00:30:38;-1.90;1.00
11511;DHT22;5812;48.864;9.190;2023-03-01T00:33:03;-1.90;1.00
11511;DHT22;5812;48.864;9.190;2023-03-01T00:35:29;-1.90;1.00
11511;DHT22;5812;48.864;9.190;2023-03-01T00:37:56;-1.90;1.00
11511;DHT22;5812;48.864;9.190;2023-03-01T00:40:24;-1.90;1.00
11511;DHT22;5812;48.864;9.190;2023-03-01T00:42:50;-1.90;1.00
11511;DHT22;5812;48.864;9.190;2023-03-01T00:45:16;-1.80;1.00
11511;DHT22;5812;48.864;9.190;2023-03-01T00:47:41;-1.90;1.00
11511;DHT22;5812;48.864;9.190;2023-03-01T00:50:08;-1.90;1.00
11511;DHT22;5812;48.864;9.190;2023-03-01T00:52:34;-2.00;1.00
11511;DHT22;5812;48.864;9.190;2023-03-01T00:54:59;-2.00;1.00
11511;DHT22;5812;48.864;9.190;2023-03-01T00:57:25;-2.00;1.00
11511;DHT22;5812;48.864;9.190;2023-03-01T00:59:52;-1.90;1.00
11511;DHT22;5812;48.864;9.190;2023-03-01T01:02:19;-1.90;1.00
11511;DHT22;5812;48.864;9.190;2023-03-01T01:04:45;-1.90;1.00
11511;DHT22;5812;48.864;9.190;2023-03-01T01:07:11;-1.90;1.00
11511;DHT22;5812;48.864;9.190;2023-03-01T01:09:36;-2.00;1.00
11511;DHT22;5812;48.864;9.190;2023-03-01T01:12:03;-2.00;1.20
11511;DHT22;5812;48.864;9.190;2023-03-01T01:14:29;-2.10;1.00
11511;DHT22;5812;48.864;9.190;2023-03-01T01:16:55;-2.10;1.00
11511;DHT22;5812;48.864;9.190;2023-03-01T01:19:20;-2.00;1.00
11511;DHT22;5812;48.864;9.190;2023-03-01T01:21:46;-2.10;5.00
11511;DHT22;5812;48.864;9.190;2023-03-01T01:24:13;-2.10;6.00
11511;DHT22;5812;48.864;9.190;2023-03-01T01:26:40;-2.20;25.20
11511;DHT22;5812;48.864;9.190;2023-03-01T01:29:06;-2.30;38.90
11511;DHT22;5812;48.864;9.190;2023-03-01T01:31:34;-2.30;44.30
11511;DHT22;5812;48.864;9.190;2023-03-01T01:34:01;-2.30;40.80
11511;DHT22;5812;48.864;9.190;2023-03-01T01:36:27;-2.20;25.60
11511;DHT22;5812;48.864;9.190;2023-03-01T01:38:53;-2.20;26.90
11511;DHT22;5812;48.864;9.190;2023-03-01T01:41:20;-2.20;18.50
11511;DHT22;5812;48.864;9.190;2023-03-01T01:43:49;-2.20;27.30
11511;DHT22;5812;48.864;9.190;2023-03-01T01:46:35;-2.10;22.70
11511;DHT22;5812;48.864;9.190;2023-03-01T01:49:05;-2.00;12.80
11511;DHT22;5812;48.864;9.190;2023-03-01T01:51:37;-2.10;7.80
11511;DHT22;5812;48.864;9.190;2023-03-01T01:54:10;-2.10;1.90
11511;DHT22;5812;48.864;9.190;2023-03-01T01:56:40;-2.10;8.90
11511;DHT22;5812;48.864;9.190;2023-03-01T01:59:08;-2.10;19.30
11511;DHT22;5812;48.864;9.190;2023-03-01T02:01:34;-2.00;6.10
11511;DHT22;5812;48.864;9.190;2023-03-01T02:04:00;-1.90;1.00
11511;DHT22;5812;48.864;9.190;2023-03-01T02:06:49;-1.90;1.00
11511;DHT22;5812;48.864;9.190;2023-03-01T02:09:14;-1.80;1.00
11511;DHT22;5812;48.864;9.190;2023-03-01T02:11:41;-1.70;1.00
11511;DHT22;5812;48.864;9.190;2023-03-01T02:14:08;-1.60;1.00
11511;DHT22;5812;48.864;9.190;2023-03-01T02:16:34;-1.60;1.00
11511;DHT22;5812;48.864;9.190;2023-03-01T02:19:00;-1.60;1.00
11511;DHT22;5812;48.864;9.190;2023-03-01T02:21:42;-1.50;1.00
11511;DHT22;5812;48.864;9.190;2023-03-01T02:24:27;-1.50;1.00
11511;DHT22;5812;48.864;9.190;2023-03-01T02:26:56;-1.40;1.00
11511;DHT22;5812;48.864;9.190;2023-03-01T02:29:23;-1.30;1.00
11511;DHT22;5812;48.864;9.190;2023-03-01T02:31:51;-1.20;1.00
11511;DHT22;5812;48.864;9.190;2023-03-01T02:34:21;-1.10;1.00
11511;DHT22;5812;48.864;9.190;2023-03-01T02:36:49;-1.00;1.00
11511;DHT22;5812;48.864;9.190;2023-03-01T02:39:23;-1.00;1.00
11511;DHT22;5812;48.864;9.190;2023-03-01T02:41:52;-1.00;1.00
11511;DHT22;5812;48.864;9.190;2023-03-01T02:44:19;-1.00;1.00
11511;DHT22;5812;48.864;9.190;2023-03-01T02:46:53;-0.90;1.00
11511;DHT22;5812;48.864;9.190;2023-03-01T02:57:46;-0.90;1.00
11511;DHT22;5812;48.864;9.190;2023-03-01T03:00:36;-0.80;1.00
11511;DHT22;5812;48.864;9.190;2023-03-01T03:03:06;-0.80;1.00
11511;DHT22;5812;48.864;9.190;2023-03-01T03:05:32;-0.80;1.00
11511;DHT22;5812;48.864;9.190;2023-03-01T03:08:00;-0.80;1.00
11511;DHT22;5812;48.864;9.190;2023-03-01T03:10:29;-0.70;1.00
11511;DHT22;5812;48.864;9.190;2023-03-01T03:12:58;-0.70;1.00
11511;DHT22;5812;48.864;9.190;2023-03-01T03:15:25;-0.60;1.00
11511;DHT22;5812;48.864;9.190;2023-03-01T03:17:52;-0.60;1.00
11511;DHT22;5812;48.864;9.190;2023-03-01T03:20:20;-0.60;1.00
11511;DHT22;5812;48.864;9.190;2023-03-01T03:22:47;-0.50;1.00
11511;DHT22;5812;48.864;9.190;2023-03-01T03:25:13;-0.50;1.00
11511;DHT22;5812;48.864;9.190;2023-03-01T03:27:41;-0.50;1.00
11511;DHT22;5812;48.864;9.190;2023-03-01T03:30:09;-0.50;1.00
11511;DHT22;5812;48.864;9.190;2023-03-01T03:32:39;-0.40;1.00
11511;DHT22;5812;48.864;9.190;2023-03-01T03:35:05;-0.40;1.00
11511;DHT22;5812;48.864;9.190;2023-03-01T03:37:38;-0.40;1.00
11511;DHT22;5812;48.864;9.190;2023-03-01T03:40:23;-0.40;1.00
11511;DHT22;5812;48.864;9.190;2023-03-01T03:42:48;-0.40;1.00
11511;DHT22;5812;48.864;9.190;2023-03-01T03:45:18;-0.40;1.00
11511;DHT22;5812;48.864;9.190;2023-03-01T03:47:44;-0.40;1.00
11511;DHT22;5812;48.864;9.190;2023-03-01T03:50:11;-0.40;1.00
11511;DHT22;5812;48.864;9.190;2023-03-01T03:52:36;-0.30;1.00
11511;DHT22;5812;48.864;9.190;2023-03-01T03:55:03;-0.30;1.00
11511;DHT22;5812;48.864;9.190;2023-03-01T03:57:29;-0.30;1.00
11511;DHT22;5812;48.864;9.190;2023-03-01T03:59:54;-0.30;1.00
11511;DHT22;5812;48.864;9.190;2023-03-01T04:02:20;-0.30;1.00
11511;DHT22;5812;48.864;9.190;2023-03-01T04:04:47;-0.30;1.00
11511;DHT22;5812;48.864;9.190;2023-03-01T04:07:15;-0.30;1.00
11511;DHT22;5812;48.864;9.190;2023-03-01T04:09:42;-0.30;1.00
11511;DHT22;5812;48.864;9.190;2023-03-01T04:12:09;-0.30;1.00
11511;DHT22;5812;48.864;9.190;2023-03-01T04:14:35;-0.30;1.00
11511;DHT22;5812;48.864;9.190;2023-03-01T04:17:01;-0.20;1.00
11511;DHT22;5812;48.864;9.190;2023-03-01T04:19:26;-0.20;1.00
11511;DHT22;5812;48.864;9.190;2023-03-01T04:21:53;-0.20;1.00
11511;DHT22;5812;48.864;9.190;2023-03-01T04:24:18;-0.20;1.00
11511;DHT22;5812;48.864;9.190;2023-03-01T04:26:44;-0.20;1.00
11511;DHT22;5812;48.864;9.190;2023-03-01T04:29:10;-0.20;1.00
11511;DHT22;5812;48.864;9.190;2023-03-01T04:31:35;-0.20;1.00
11511;DHT22;5812;48.864;9.190;2023-03-01T04:34:01;-0.20;1.00
11511;DHT22;5812;48.864;9.190;2023-03-01T04:36:29;-0.20;1.00
11511;DHT22;5812;48.864;9.190;2023-03-01T04:38:55;-0.20;1.00
11511;DHT22;5812;48.864;9.190;2023-03-01T04:41:23;-0.20;1.00
11511;DHT22;5812;48.864;9.190;2023-03-01T04:43:49;-0.20;1.00
11511;DHT22;5812;48.864;9.190;2023-03-01T04:46:17;-0.20;1.00
11511;DHT22;5812;48.864;9.190;2023-03-01T04:48:44;-0.10;1.00
11511;DHT22;5812;48.864;9.190;2023-03-01T04:51:10;-0.20;1.00
11511;DHT22;5812;48.864;9.190;2023-03-01T04:53:39;-0.10;1.00
11511;DHT22;5812;48.864;9.190;2023-03-01T04:56:05;-0.10;1.00
11511;DHT22;5812;48.864;9.190;2023-03-01T04:58:31;-0.10;1.00
11511;DHT22;5812;48.864;9.190;2023-03-01T05:00:57;-0.20;1.00
11511;DHT22;5812;48.864;9.190;2023-03-01T05:03:23;-0.20;1.00
11511;DHT22;5812;48.864;9.190;2023-03-01T05:05:51;-0.20;1.00
11511;DHT22;5812;48.864;9.190;2023-03-01T05:08:17;-0.10;1.00
11511;DHT22;5812;48.864;9.190;2023-03-01T05:10:52;-0.20;1.00
11511;DHT22;5812;48.864;9.190;2023-03-01T05:13:19;-0.20;1.00
11511;DHT22;5812;48.864;9.190;2023-03-01T05:15:59;-0.10;1.00
11511;DHT22;5812;48.864;9.190;2023-03-01T05:18:26;-0.10;1.00
11511;DHT22;5812;48.864;9.190;2023-03-01T05:20:53;-0.10;1.00
11511;DHT22;5812;48.864;9.190;2023-03-01T05:23:22;-0.10;1.00
11511;DHT22;5812;48.864;9.190;2023-03-01T05:25:47;-0.10;1.00
11511;DHT22;5812;48.864;9.190;2023-03-01T05:28:14;-0.20;1.00
11511;DHT22;5812;48.864;9.190;2023-03-01T05:30:42;-0.20;1.00
11511;DHT22;5812;48.864;9.190;2023-03-01T05:33:08;-0.20;1.00
11511;DHT22;5812;48.864;9.190;2023-03-01T05:35:40;-0.10;1.00
11511;DHT22;5812;48.864;9.190;2023-03-01T05:38:06;-0.10;1.00
11511;DHT22;5812;48.864;9.190;2023-03-01T05:40:33;-0.10;1.00
11511;DHT22;5812;48.864;9.190;2023-03-01T05:42:59;-0.20;1.00
11511;DHT22;5812;48.864;9.190;2023-03-01T05:45:26;-0.10;1.00
11511;DHT22;5812;48.864;9.190;2023-03-01T05:47:53;-0.10;1.00
11511;DHT22;5812;48.864;9.190;2023-03-01T05:50:26;-0.10;1.00
11511;DHT22;5812;48.864;9.190;2023-03-01T05:53:00;-0.10;1.00
11511;DHT22;5812;48.864;9.190;2023-03-01T05:55:26;-0.10;1.00
11511;DHT22;5812;48.864;9.190;2023-03-01T05:57:51;-0.10;1.00
11511;DHT22;5812;48.864;9.190;2023-03-01T06:00:19;-0.10;1.00
11511;DHT22;5812;48.864;9.190;2023-03-01T06:02:47;-0.10;1.00
11511;DHT22;5812;48.864;9.190;2023-03-01T06:05:13;-0.10;1.00
11511;DHT22;5812;48.864;9.190;2023-03-01T06:07:39;-0.10;1.00
11511;DHT22;5812;48.864;9.190;2023-03-01T06:10:06;-0.10;1.00
11511;DHT22;5812;48.864;9.190;2023-03-01T06:12:34;-0.10;1.00
11511;DHT22;5812;48.864;9.190;2023-03-01T06:15:01;-0.10;1.00
11511;DHT22;5812;48.864;9.190;2023-03-01T06:17:29;-0.10;1.00
11511;DHT22;5812;48.864;9.190;2023-03-01T06:19:55;0.00;1.00
11511;DHT22;5812;48.864;9.190;2023-03-01T06:22:21;-0.10;1.00
11511;DHT22;5812;48.864;9.190;2023-03-01T06:24:46;0.00;1.00
11511;DHT22;5812;48.864;9.190;2023-03-01T06:27:12;-0.10;1.00
11511;DHT22;5812;48.864;9.190;2023-03-01T06:29:37;-0.10;1.00
11511;DHT22;5812;48.864;9.190;2023-03-01T06:32:03;-0.10;1.00
11511;DHT22;5812;48.864;9.190;2023-03-01T06:34:29;-0.20;1.00
11511;DHT22;5812;48.864;9.190;2023-03-01T06:36:55;-0.20;1.00
11511;DHT22;5812;48.864;9.190;2023-03-01T06:39:21;-0.30;1.00
11511;DHT22;5812;48.864;9.190;2023-03-01T06:41:46;-0.40;1.00
11511;DHT22;5812;48.864;9.190;2023-03-01T06:44:12;-0.40;1.00
11511;DHT22;5812;48.864;9.190;2023-03-01T06:46:39;-0.50;1.00
11511;DHT22;5812;48.864;9.190;2023-03-01T06:49:04;-0.50;1.00
11511;DHT22;5812;48.864;9.190;2023-03-01T06:51:37;-0.50;1.00
11511;DHT22;5812;48.864;9.190;2023-03-01T06:54:04;-0.50;1.00
11511;DHT22;5812;48.864;9.190;2023-03-01T06:56:31;-0.50;1.00
11511;DHT22;5812;48.864;9.190;2023-03-01T06:58:56;-0.40;1.00
11511;DHT22;5812;48.864;9.190;2023-03-01T07:01:22;-0.40;1.00
11511;DHT22;5812;48.864;9.190;2023-03-01T07:03:47;-0.40;1.00
11511;DHT22;5812;48.864;9.190;2023-03-01T07:06:13;-0.40;1.00
11511;DHT22;5812;48.864;9.190;2023-03-01T07:08:39;-0.30;1.00
11511;DHT22;5812;48.864;9.190;2023-03-01T07:11:04;-0.30;1.00
11511;DHT22;5812;48.864;9.190;2023-03-01T07:13:31;-0.30;1.00
11511;DHT22;5812;48.864;9.190;2023-03-01T07:15:57;-0.30;1.00
11511;DHT22;5812;48.864;9.190;2023-03-01T07:18:23;-0.20;1.00
11511;DHT22;5812;48.864;9.190;2023-03-01T07:20:48;-0.20;1.00
11511;DHT22;5812;48.864;9.190;2023-03-01T07:23:14;0.00;1.00
11511;DHT22;5812;48.864;9.190;2023-03-01T07:25:40;0.00;1.00
11511;DHT22;5812;48.864;9.190;2023-03-01T07:28:06;0.10;1.00
11511;DHT22;5812;48.864;9.190;2023-03-01T07:30:31;0.10;1.00
11511;DHT22;5812;48.864;9.190;2023-03-01T07:32:58;0.10;1.00
11511;DHT22;5812;48.864;9.190;2023-03-01T07:35:26;0.20;1.00
11511;DHT22;5812;48.864;9.190;2023-03-01T07:37:52;0.30;1.00
11511;DHT22;5812;48.864;9.190;2023-03-01T07:40:18;0.50;1.00
11511;DHT22;5812;48.864;9.190;2023-03-01T07:42:44;0.60;1.00
11511;DHT22;5812;48.864;9.190;2023-03-01T07:45:10;0.60;1.00
11511;DHT22;5812;48.864;9.190;2023-03-01T07:47:36;0.70;1.00
11511;DHT22;5812;48.864;9.190;2023-03-01T07:50:02;0.90;1.00
11511;DHT22;5812;48.864;9.190;2023-03-01T07:52:28;0.90;1.00
11511;DHT22;5812;48.864;9.190;2023-03-01T07:54:53;1.10;1.00
11511;DHT22;5812;48.864;9.190;2023-03-01T07:57:19;1.10;1.00
11511;DHT22;5812;48.864;9.190;2023-03-01T07:59:45;1.20;1.00
11511;DHT22;5812;48.864;9.190;2023-03-01T08:02:10;1.30;1.00
11511;DHT22;5812;48.864;9.190;2023-03-01T08:04:36;1.60;1.00
11511;DHT22;5812;48.864;9.190;2023-03-01T08:07:05;1.80;1.00
11511;DHT22;5812;48.864;9.190;2023-03-01T08:09:30;1.80;1.00
11511;DHT22;5812;48.864;9.190;2023-03-01T08:11:57;1.70;1.00
11511;DHT22;5812;48.864;9.190;2023-03-01T08:14:24;1.70;1.00
11511;DHT22;5812;48.864;9.190;2023-03-01T08:16:50;1.70;1.00
11511;DHT22;5812;48.864;9.190;2023-03-01T08:19:16;1.90;1.00
11511;DHT22;5812;48.864;9.190;2023-03-01T08:21:42;2.10;1.00
11511;DHT22;5812;48.864;9.190;2023-03-01T08:24:08;2.10;1.00
11511;DHT22;5812;48.864;9.190;2023-03-01T08:26:35;2.50;1.00
11511;DHT22;5812;48.864;9.190;2023-03-01T08:29:02;2.40;1.00
11511;DHT22;5812;48.864;9.190;2023-03-01T08:31:36;2.50;1.00
11511;DHT22;5812;48.864;9.190;2023-03-01T08:34:05;2.50;1.00
11511;DHT22;5812;48.864;9.190;2023-03-01T08:36:35;2.80;1.00
11511;DHT22;5812;48.864;9.190;2023-03-01T08:39:01;3.10;1.00
11511;DHT22;5812;48.864;9.190;2023-03-01T08:41:27;3.10;1.00
11511;DHT22;5812;48.864;9.190;2023-03-01T08:43:53;3.10;1.00
11511;DHT22;5812;48.864;9.190;2023-03-01T08:46:27;3.20;1.00
11511;DHT22;5812;48.864;9.190;2023-03-01T08:48:52;3.10;1.00
11511;DHT22;5812;48.864;9.190;2023-03-01T08:51:19;3.20;1.00
11511;DHT22;5812;48.864;9.190;2023-03-01T08:53:45;3.50;1.00
11511;DHT22;5812;48.864;9.190;2023-03-01T08:56:11;3.80;1.00
11511;DHT22;5812;48.864;9.190;2023-03-01T08:58:38;3.60;1.00
11511;DHT22;5812;48.864;9.190;2023-03-01T09:01:09;3.60;1.00
11511;DHT22;5812;48.864;9.190;2023-03-01T09:03:35;4.00;1.00
11511;DHT22;5812;48.864;9.190;2023-03-01T09:06:02;3.90;1.00
11511;DHT22;5812;48.864;9.190;2023-03-01T09:08:28;4.00;1.00
11511;DHT22;5812;48.864;9.190;2023-03-01T09:10:54;4.10;1.00
11511;DHT22;5812;48.864;9.190;2023-03-01T09:13:20;4.20;1.00
11511;DHT22;5812;48.864;9.190;2023-03-01T09:15:45;4.20;1.00
11511;DHT22;5812;48.864;9.190;2023-03-01T09:18:11;4.40;1.00
11511;DHT22;5812;48.864;9.190;2023-03-01T09:20:36;4.40;1.00
11511;DHT22;5812;48.864;9.190;2023-03-01T09:23:02;4.30;1.00
11511;DHT22;5812;48.864;9.190;2023-03-01T09:25:28;4.90;1.00
11511;DHT22;5812;48.864;9.190;2023-03-01T09:27:54;4.70;1.00
11511;DHT22;5812;48.864;9.190;2023-03-01T09:30:20;4.70;1.00
11511;DHT22;5812;48.864;9.190;2023-03-01T09:32:46;4.90;1.00
11511;DHT22;5812;48.864;9.190;2023-03-01T09:35:12;5.00;1.00
11511;DHT22;5812;48.864;9.190;2023-03-01T09:37:38;4.90;1.00
11511;DHT22;5812;48.864;9.190;2023-03-01T09:40:06;5.20;1.00
11511;DHT22;5812;48.864;9.190;2023-03-01T09:42:34;5.70;1.00
11511;DHT22;5812;48.864;9.190;2023-03-01T09:45:35;5.70;1.00
11511;DHT22;5812;48.864;9.190;2023-03-01T09:48:03;6.00;1.00
11511;DHT22;5812;48.864;9.190;2023-03-01T09:50:40;5.90;1.00
11511;DHT22;5812;48.864;9.190;2023-03-01T09:53:12;5.90;1.00
11511;DHT22;5812;48.864;9.190;2023-03-01T09:56:33;5.70;1.00
11511;DHT22;5812;48.864;9.190;2023-03-01T10:05:04;6.50;1.00
11511;DHT22;5812;48.864;9.190;2023-03-01T10:07:54;6.50;1.00
11511;DHT22;5812;48.864;9.190;2023-03-01T10:10:28;6.30;1.00
11511;DHT22;5812;48.864;9.190;2023-03-01T10:12:57;6.90;1.00
11511;DHT22;5812;48.864;9.190;2023-03-01T10:15:39;7.00;1.00
11511;DHT22;5812;48.864;9.190;2023-03-01T10:18:11;6.80;1.00
11511;DHT22;5812;48.864;9.190;2023-03-01T10:20:43;6.80;1.00
11511;DHT22;5812;48.864;9.190;2023-03-01T10:23:11;7.40;99.90
11511;DHT22;5812;48.864;9.190;2023-03-01T10:30:49;7.20;99.90
11511;DHT22;5812;48.864;9.190;2023-03-01T10:35:44;8.40;99.90
11511;DHT22;5812;48.864;9.190;2023-03-01T10:38:12;8.40;99.90
11511;DHT22;5812;48.864;9.190;2023-03-01T10:40:58;8.10;99.90
11511;DHT22;5812;48.864;9.190;2023-03-01T10:43:26;8.20;99.90
11511;DHT22;5812;48.864;9.190;2023-03-01T10:45:52;8.80;99.90
11511;DHT22;5812;48.864;9.190;2023-03-01T10:48:23;9.00;99.90
11511;DHT22;5812;48.864;9.190;2023-03-01T10:53:29;9.00;99.90
11511;DHT22;5812;48.864;9.190;2023-03-01T10:56:03;9.40;99.90
11511;DHT22;5812;48.864;9.190;2023-03-01T10:58:30;10.10;99.90
11511;DHT22;5812;48.864;9.190;2023-03-01T11:01:01;9.80;99.90
11511;DHT22;5812;48.864;9.190;2023-03-01T11:03:36;9.50;99.90
11511;DHT22;5812;48.864;9.190;2023-03-01T11:08:43;9.70;99.90
11511;DHT22;5812;48.864;9.190;2023-03-01T11:13:35;10.20;99.90
11511;DHT22;5812;48.864;9.190;2023-03-01T11:16:06;10.50;99.90
11511;DHT22;5812;48.864;9.190;2023-03-01T11:18:33;11.00;99.90
11511;DHT22;5812;48.864;9.190;2023-03-01T11:21:00;10.50;99.90
11511;DHT22;5812;48.864;9.190;2023-03-01T11:23:29;11.00;99.90
11511;DHT22;5812;48.864;9.190;2023-03-01T11:25:58;11.00;99.90
11511;DHT22;5812;48.864;9.190;2023-03-01T11:28:24;11.30;99.90
11511;DHT22;5812;48.864;9.190;2023-03-01T11:30:58;10.70;99.90
11511;DHT22;5812;48.864;9.190;2023-03-01T11:36:32;11.70;99.90
11511;DHT22;5812;48.864;9.190;2023-03-01T11:41:49;12.20;99.90
11511;DHT22;5812;48.864;9.190;2023-03-01T11:44:24;12.10;99.90
11511;DHT22;5812;48.864;9.190;2023-03-01T11:50:08;12.20;99.90
11511;DHT22;5812;48.864;9.190;2023-03-01T11:52:48;12.60;99.90
11511;DHT22;5812;48.864;9.190;2023-03-01T12:06:42;14.50;99.90
11511;DHT22;5812;48.864;9.190;2023-03-01T12:26:19;17.60;99.90
11511;DHT22;5812;48.864;9.190;2023-03-01T12:28:55;17.80;99.90
11511;DHT22;5812;48.864;9.190;2023-03-01T12:43:19;17.40;99.90
11511;DHT22;5812;48.864;9.190;2023-03-01T12:50:55;18.10;99.90
11511;DHT22;5812;48.864;9.190;2023-03-01T12:53:35;18.60;99.90
11511;DHT22;5812;48.864;9.190;2023-03-01T12:56:26;19.00;99.90
11511;DHT22;5812;48.864;9.190;2023-03-01T12:59:08;18.50;99.90
11511;DHT22;5812;48.864;9.190;2023-03-01T13:01:40;17.50;99.90
11511;DHT22;5812;48.864;9.190;2023-03-01T13:09:31;19.20;99.90
11511;DHT22;5812;48.864;9.190;2023-03-01T13:11:59;19.70;99.90
11511;DHT22;5812;48.864;9.190;2023-03-01T13:16:55;19.70;99.90
11511;DHT22;5812;48.864;9.190;2023-03-01T13:19:22;20.30;99.90
11511;DHT22;5812;48.864;9.190;2023-03-01T13:21:49;20.60;99.90
11511;DHT22;5812;48.864;9.190;2023-03-01T13:24:40;21.20;99.90
11511;DHT22;5812;48.864;9.190;2023-03-01T13:32:23;20.90;99.90
11511;DHT22;5812;48.864;9.190;2023-03-01T13:34:54;20.10;99.90
11511;DHT22;5812;48.864;9.190;2023-03-01T13:37:26;19.90;99.90
11511;DHT22;5812;48.864;9.190;2023-03-01T13:39:55;20.10;99.90
11511;DHT22;5812;48.864;9.190;2023-03-01T13:44:56;20.00;99.90
11511;DHT22;5812;48.864;9.190;2023-03-01T13:47:22;18.90;99.90
11511;DHT22;5812;48.864;9.190;2023-03-01T13:49:56;18.60;99.90
11511;DHT22;5812;48.864;9.190;2023-03-01T13:57:40;17.20;99.90
11511;DHT22;5812;48.864;9.190;2023-03-01T14:00:24;16.90;99.90
11511;DHT22;5812;48.864;9.190;2023-03-01T14:03:10;16.30;99.90
11511;DHT22;5812;48.864;9.190;2023-03-01T14:05:36;16.10;99.90
11511;DHT22;5812;48.864;9.190;2023-03-01T14:08:14;15.70;99.90
11511;DHT22;5812;48.864;9.190;2023-03-01T14:10:58;14.80;99.90
11511;DHT22;5812;48.864;9.190;2023-03-01T14:16:49;13.30;99.90
11511;DHT22;5812;48.864;9.190;2023-03-01T14:19:25;13.10;99.90
11511;DHT22;5812;48.864;9.190;2023-03-01T14:24:31;12.00;99.90
11511;DHT22;5812;48.864;9.190;2023-03-01T14:27:00;12.10;99.90
11511;DHT22;5812;48.864;9.190;2023-03-01T14:29:35;11.80;99.90
11511;DHT22;5812;48.864;9.190;2023-03-01T14:32:24;11.90;99.90
11511;DHT22;5812;48.864;9.190;2023-03-01T14:34:51;12.10;99.90
11511;DHT22;5812;48.864;9.190;2023-03-01T14:37:24;12.00;99.90
11511;DHT22;5812;48.864;9.190;2023-03-01T14:39:50;11.90;99.90
11511;DHT22;5812;48.864;9.190;2023-03-01T14:42:16;11.60;99.90
11511;DHT22;5812;48.864;9.190;2023-03-01T14:44:46;11.60;99.90
11511;DHT22;5812;48.864;9.190;2023-03-01T14:47:15;12.10;99.90
11511;DHT22;5812;48.864;9.190;2023-03-01T14:49:41;12.10;99.90
11511;DHT22;5812;48.864;9.190;2023-03-01T14:52:18;12.20;99.90
11511;DHT22;5812;48.864;9.190;2023-03-01T14:54:48;12.00;99.90
11511;DHT22;5812;48.864;9.190;2023-03-01T14:57:20;12.30;99.90
11511;DHT22;5812;48.864;9.190;2023-03-01T14:59:53;12.80;99.90
11511;DHT22;5812;48.864;9.190;2023-03-01T15:02:24;12.80;99.90
11511;DHT22;5812;48.864;9.190;2023-03-01T15:04:59;12.50;99.90
11511;DHT22;5812;48.864;9.190;2023-03-01T15:07:35;12.40;99.90
11511;DHT22;5812;48.864;9.190;2023-03-01T15:10:03;12.20;99.90
11511;DHT22;5812;48.864;9.190;2023-03-01T15:14:57;12.00;99.90
11511;DHT22;5812;48.864;9.190;2023-03-01T15:17:34;11.90;99.90
11511;DHT22;5812;48.864;9.190;2023-03-01T15:20:03;11.20;99.90
11511;DHT22;5812;48.864;9.190;2023-03-01T15:22:30;10.60;99.90
11511;DHT22;5812;48.864;9.190;2023-03-01T15:24:55;11.00;99.90
11511;DHT22;5812;48.864;9.190;2023-03-01T15:27:25;11.30;99.90
11511;DHT22;5812;48.864;9.190;2023-03-01T15:29:59;11.00;99.90
11511;DHT22;5812;48.864;9.190;2023-03-01T15:34:51;10.10;99.90
11511;DHT22;5812;48.864;9.190;2023-03-01T15:40:24;9.80;99.90
11511;DHT22;5812;48.864;9.190;2023-03-01T15:43:00;9.70;99.90
11511;DHT22;5812;48.864;9.190;2023-03-01T15:45:28;9.90;99.90
11511;DHT22;5812;48.864;9.190;2023-03-01T15:47:56;9.80;99.90
11511;DHT22;5812;48.864;9.190;2023-03-01T15:50:26;9.40;99.90
11511;DHT22;5812;48.864;9.190;2023-03-01T15:52:53;9.30;99.90
11511;DHT22;5812;48.864;9.190;2023-03-01T15:57:46;9.20;99.90
11511;DHT22;5812;48.864;9.190;2023-03-01T16:00:13;9.10;99.90
11511;DHT22;5812;48.864;9.190;2023-03-01T16:02:41;9.30;99.90
11511;DHT22;5812;48.864;9.190;2023-03-01T16:05:28;9.20;99.90
11511;DHT22;5812;48.864;9.190;2023-03-01T16:07:54;9.40;99.90
11511;DHT22;5812;48.864;9.190;2023-03-01T16:10:20;9.40;99.90
11511;DHT22;5812;48.864;9.190;2023-03-01T16:12:46;9.30;99.90
11511;DHT22;5812;48.864;9.190;2023-03-01T16:15:19;8.80;99.90
11511;DHT22;5812;48.864;9.190;2023-03-01T16:17:46;8.50;99.90
11511;DHT22;5812;48.864;9.190;2023-03-01T16:20:12;8.20;99.90
11511;DHT22;5812;48.864;9.190;2023-03-01T16:22:44;7.90;99.90
11511;DHT22;5812;48.864;9.190;2023-03-01T16:25:11;7.70;99.90
11511;DHT22;5812;48.864;9.190;2023-03-01T16:27:38;7.60;99.90
11511;DHT22;5812;48.864;9.190;2023-03-01T16:30:05;7.50;99.90
11511;DHT22;5812;48.864;9.190;2023-03-01T16:32:31;7.40;99.90
11511;DHT22;5812;48.864;9.190;2023-03-01T16:34:57;7.30;99.90
11511;DHT22;5812;48.864;9.190;2023-03-01T16:37:22;7.20;99.90
11511;DHT22;5812;48.864;9.190;2023-03-01T16:39:48;7.10;99.90
11511;DHT22;5812;48.864;9.190;2023-03-01T16:42:16;7.00;99.90
11511;DHT22;5812;48.864;9.190;2023-03-01T16:44:42;6.90;99.90
11511;DHT22;5812;48.864;9.190;2023-03-01T16:47:07;6.80;99.90
11511;DHT22;5812;48.864;9.190;2023-03-01T16:49:33;6.70;99.90
11511;DHT22;5812;48.864;9.190;2023-03-01T16:51:58;6.60;99.90
11511;DHT22;5812;48.864;9.190;2023-03-01T16:54:24;6.40;99.90
11511;DHT22;5812;48.864;9.190;2023-03-01T16:56:50;6.40;99.90
11511;DHT22;5812;48.864;9.190;2023-03-01T16:59:15;6.30;99.90
11511;DHT22;5812;48.864;9.190;2023-03-01T17:01:43;6.20;99.90
11511;DHT22;5812;48.864;9.190;2023-03-01T17:04:12;6.10;99.90
11511;DHT22;5812;48.864;9.190;2023-03-01T17:06:38;6.00;99.90
11511;DHT22;5812;48.864;9.190;2023-03-01T17:09:03;5.90;99.90
11511;DHT22;5812;48.864;9.190;2023-03-01T17:11:30;5.80;99.90
11511;DHT22;5812;48.864;9.190;2023-03-01T17:13:56;5.80;99.90
11511;DHT22;5812;48.864;9.190;2023-03-01T17:16:22;5.70;99.90
11511;DHT22;5812;48.864;9.190;2023-03-01T17:18:48;5.60;99.90
11511;DHT22;5812;48.864;9.190;2023-03-01T17:21:14;5.50;99.90
11511;DHT22;5812;48.864;9.190;2023-03-01T17:23:42;5.40;99.90
11511;DHT22;5812;48.864;9.190;2023-03-01T17:26:09;5.20;99.90
11511;DHT22;5812;48.864;9.190;2023-03-01T17:28:35;5.10;99.90
11511;DHT22;5812;48.864;9.190;2023-03-01T17:31:03;5.10;99.90
11511;DHT22;5812;48.864;9.190;2023-03-01T17:33:29;5.00;99.90
11511;DHT22;5812;48.864;9.190;2023-03-01T17:35:56;5.00;99.90
11511;DHT22;5812;48.864;9.190;2023-03-01T17:38:22;4.90;99.90
11511;DHT22;5812;48.864;9.190;2023-03-01T17:40:48;4.80;99.90
11511;DHT22;5812;48.864;9.190;2023-03-01T17:43:15;4.80;99.90
11511;DHT22;5812;48.864;9.190;2023-03-01T17:45:41;4.70;99.90
11511;DHT22;5812;48.864;9.190;2023-03-01T17:48:14;4.60;99.90
11511;DHT22;5812;48.864;9.190;2023-03-01T17:50:40;4.60;99.90
11511;DHT22;5812;48.864;9.190;2023-03-01T17:53:09;4.50;99.90
11511;DHT22;5812;48.864;9.190;2023-03-01T17:55:37;4.40;99.90
11511;DHT22;5812;48.864;9.190;2023-03-01T17:58:04;4.30;99.90
11511;DHT22;5812;48.864;9.190;2023-03-01T18:00:30;4.20;99.90
11511;DHT22;5812;48.864;9.190;2023-03-01T18:02:55;4.20;99.90
11511;DHT22;5812;48.864;9.190;2023-03-01T18:05:21;4.10;99.90
11511;DHT22;5812;48.864;9.190;2023-03-01T18:07:47;4.10;99.90
11511;DHT22;5812;48.864;9.190;2023-03-01T18:10:12;4.10;99.90
11511;DHT22;5812;48.864;9.190;2023-03-01T18:12:38;4.00;99.90